Time;durP1;ratioP1;P1;durP2;ratioP2;P2;SDS_P1;SDS_P2;PMS_P1;PMS_P2;Temp;Humidity;BMP_temperature;BMP_pressure;BME280_temperature;BME280_humidity;BME280_pressure;Samples;Min_cycle;Max_cycle;Signal;HPM_P1;HPM_P2
2022/11/06 00:01:16;;;;;;;26.17;8.93;;;;;;;2.91;98.34;99721.41;8417767;28;20047;-72
2022/11/06 00:09:37;;;;;;;20.90;9.45;;;;;;;2.88;98.59;99732.56;8447625;28;20044;-73
2022/11/06 00:13:38;;;;;;;21.10;9.50;;;;;;;2.84;98.66;99726.09;8406452;28;20105;-73
2022/11/06 00:17:39;;;;;;;27.15;8.85;;;;;;;2.83;98.82;99729.81;8437215;28;20112;-72
2022/11/06 00:21:40;;;;;;;17.58;7.53;;;;;;;2.81;98.63;99731.91;8430667;28;20040;-73
2022/11/06 00:25:41;;;;;;;19.58;7.22;;;;;;;2.79;98.67;99728.69;8413446;28;20048;-73
2022/11/06 00:29:42;;;;;;;12.95;6.65;;;;;;;2.77;98.95;99736.13;8435241;28;20448;-74
2022/11/06 00:33:43;;;;;;;19.77;7.03;;;;;;;2.76;98.83;99739.84;8431797;28;20040;-72
2022/11/06 00:37:44;;;;;;;14.27;7.00;;;;;;;2.74;98.59;99741.94;8411976;28;20048;-73
2022/11/06 00:41:45;;;;;;;14.27;6.45;;;;;;;2.73;98.68;99740.34;8433778;28;20427;-73
2022/11/06 00:45:46;;;;;;;15.65;6.90;;;;;;;2.72;98.59;99738.72;8441974;28;20494;-72
2022/11/06 00:49:47;;;;;;;14.98;6.45;;;;;;;2.70;98.58;99735.47;8431220;28;20093;-72
2022/11/06 00:53:53;;;;;;;12.07;6.80;;;;;;;2.66;98.87;99738.84;8432549;28;20055;-73
2022/11/06 00:57:54;;;;;;;17.58;6.20;;;;;;;2.58;98.80;99737.41;8404087;28;20487;-73
2022/11/06 01:01:55;;;;;;;16.02;6.40;;;;;;;2.56;98.62;99739.50;8409275;28;20044;-72
2022/11/06 01:06:09;;;;;;;15.85;6.75;;;;;;;2.57;98.68;99740.31;8408372;28;20055;-73
2022/11/06 01:10:10;;;;;;;17.75;6.60;;;;;;;2.58;98.76;99748.06;8403157;28;20053;-73
2022/11/06 01:14:13;;;;;;;14.32;6.43;;;;;;;2.56;98.89;99744.84;8410664;28;20143;-73
2022/11/06 01:18:14;;;;;;;13.40;6.25;;;;;;;2.48;99.00;99754.06;8387600;28;20057;-73
2022/11/06 01:22:15;;;;;;;18.02;6.32;;;;;;;2.41;99.10;99752.56;8406829;28;20044;-73
2022/11/06 01:26:17;;;;;;;13.23;5.75;;;;;;;2.38;98.88;99737.06;8402563;28;20044;-74
2022/11/06 01:30:17;;;;;;;18.08;6.30;;;;;;;2.35;99.05;99742.84;8404837;28;20051;-72
2022/11/06 01:34:18;;;;;;;21.38;6.70;;;;;;;2.36;98.84;99733.81;8411540;28;20151;-73
2022/11/06 01:38:19;;;;;;;9.98;6.00;;;;;;;2.37;99.01;99735.44;8399068;28;20494;-73
2022/11/06 01:42:20;;;;;;;11.98;5.78;;;;;;;2.35;98.73;99737.53;8408080;28;20076;-73
2022/11/06 01:46:23;;;;;;;10.50;5.60;;;;;;;2.35;99.10;99742.84;8407509;28;20048;-72
2022/11/06 01:50:25;;;;;;;13.70;6.55;;;;;;;2.35;98.83;99737.53;8407361;28;21032;-72
2022/11/06 01:54:27;;;;;;;15.10;6.93;;;;;;;2.31;99.06;99731.06;8413327;28;20178;-74
2022/11/06 01:58:30;;;;;;;12.63;6.80;;;;;;;2.30;98.96;99740.09;8400777;28;20049;-73
2022/11/06 02:02:31;;;;;;;16.73;7.50;;;;;;;2.27;98.69;99740.59;8422195;28;20115;-73
2022/11/06 02:06:32;;;;;;;21.33;8.88;;;;;;;2.27;98.82;99740.59;8423702;28;20051;-72
2022/11/06 02:10:33;;;;;;;26.60;8.73;;;;;;;2.22;98.96;99732.50;8420876;28;20048;-72
2022/11/06 02:15:09;;;;;;;23.00;8.98;;;;;;;2.19;98.83;99743.63;8423081;28;20047;-73
2022/11/06 02:19:57;;;;;;;21.83;9.50;;;;;;;2.17;98.78;99751.06;8406339;28;20556;-72
2022/11/06 02:24:17;;;;;;;36.55;11.32;;;;;;;2.12;99.05;99746.44;8333386;28;20041;-72
2022/11/06 02:28:24;;;;;;;29.40;10.73;;;;;;;2.10;98.96;99745.88;8334284;28;20042;-72
2022/11/06 02:32:37;;;;;;;29.90;10.98;;;;;;;2.07;98.67;99741.81;8325149;28;20072;-73
2022/11/06 02:36:49;;;;;;;30.60;11.57;;;;;;;2.07;98.72;99738.34;8338237;28;20152;-73
2022/11/06 02:40:54;;;;;;;27.40;10.75;;;;;;;2.05;98.87;99735.94;8311693;28;20563;-73
2022/11/06 02:44:56;;;;;;;26.02;11.10;;;;;;;2.05;98.79;99732.47;8338984;28;20053;-73
2022/11/06 02:49:04;;;;;;;27.30;10.15;;;;;;;2.07;98.75;99746.34;8294101;28;20046;-73
2022/11/06 02:53:07;;;;;;;21.95;10.35;;;;;;;2.07;98.81;99741.81;8346112;28;20093;-72
2022/11/06 02:57:14;;;;;;;21.42;10.02;;;;;;;2.03;98.68;99740.69;8429877;28;20073;-74
2022/11/06 03:01:21;;;;;;;18.90;9.27;;;;;;;2.01;98.91;99737.44;8424692;28;20494;-72
2022/11/06 03:05:51;;;;;;;19.08;9.05;;;;;;;1.98;99.04;99740.59;8415459;28;20445;-73
2022/11/06 03:09:52;;;;;;;24.63;9.68;;;;;;;1.96;98.85;99744.53;8318109;28;20510;-73
2022/11/06 03:14:11;;;;;;;17.75;9.30;;;;;;;1.96;98.92;99742.66;8349714;28;20091;-73
2022/11/06 03:18:17;;;;;;;16.88;8.88;;;;;;;1.97;99.23;99752.28;8351102;28;20057;-72
2022/11/06 03:22:29;;;;;;;14.32;8.57;;;;;;;1.98;98.82;99742.44;8308545;28;20041;-72
2022/11/06 03:26:36;;;;;;;16.38;9.00;;;;;;;1.97;98.98;99730.97;8343519;28;20514;-73
2022/11/06 03:30:46;;;;;;;15.98;8.77;;;;;;;1.95;99.08;99727.75;8328789;28;20052;-73
2022/11/06 03:34:58;;;;;;;23.17;8.65;;;;;;;1.95;99.27;99743.75;8331817;28;20486;-74
2022/11/06 03:39:05;;;;;;;16.42;8.63;;;;;;;1.95;99.05;99733.09;8343672;28;20049;-73
2022/11/06 03:43:07;;;;;;;18.63;9.77;;;;;;;1.95;99.03;99738.41;8320330;28;20366;-72
2022/11/06 03:47:36;;;;;;;18.40;7.85;;;;;;;1.92;99.34;99736.19;8356478;28;20506;-73
2022/11/06 03:51:41;;;;;;;13.07;7.25;;;;;;;1.92;99.02;99744.19;8391554;28;20123;-72
2022/11/06 03:55:51;;;;;;;15.85;7.07;;;;;;;1.94;99.00;99741.31;8369527;28;20043;-72
2022/11/06 03:59:54;;;;;;;12.90;6.30;;;;;;;1.93;99.16;99737.81;8382345;28;20445;-73
2022/11/06 04:04:01;;;;;;;11.82;6.15;;;;;;;1.92;99.47;99744.19;8396638;28;20050;-73
2022/11/06 04:17:07;;;;;;;13.15;6.50;;;;;;;1.95;99.19;99733.09;8334835;28;20218;-73
2022/11/06 04:21:25;;;;;;;17.75;7.55;;;;;;;1.97;99.10;99728.31;8292626;28;20058;-73
2022/11/06 04:30:00;;;;;;;15.02;6.53;;;;;;;2.00;99.28;99735.84;8292397;28;20484;-73
2022/11/06 04:34:08;;;;;;;12.07;5.47;;;;;;;1.99;99.21;99744.88;8292653;28;20129;-73
2022/11/06 04:38:40;;;;;;;15.18;6.88;;;;;;;1.91;99.55;99737.25;8291231;28;20049;-73
2022/11/06 04:43:00;;;;;;;12.20;5.60;;;;;;;1.92;99.57;99733.53;8292395;28;20049;-73
2022/11/06 04:47:07;;;;;;;10.90;5.65;;;;;;;1.95;99.41;99730.41;8292262;28;20049;-73
2022/11/06 04:51:09;;;;;;;11.55;5.70;;;;;;;1.97;99.62;99730.97;8354708;28;20138;-73
2022/11/06 04:55:10;;;;;;;15.95;6.28;;;;;;;1.98;99.53;99727.28;8422788;28;20128;-73
2022/11/06 04:59:14;;;;;;;16.80;5.82;;;;;;;2.00;99.64;99738.50;8410278;28;20055;-72
2022/11/06 05:03:15;;;;;;;12.50;6.15;;;;;;;2.00;99.55;99730.50;8399916;28;20057;-73
2022/11/06 05:07:16;;;;;;;11.13;5.75;;;;;;;1.98;99.76;99727.28;8396384;28;20413;-72
2022/11/06 05:11:17;;;;;;;11.52;6.30;;;;;;;1.97;99.93;99736.31;8401219;28;20055;-73
2022/11/06 05:15:18;;;;;;;16.00;7.20;;;;;;;1.94;99.92;99726.13;8414636;28;20414;-73
2022/11/06 05:19:19;;;;;;;13.18;5.78;;;;;;;1.92;100.00;99728.22;8435313;28;20043;-73
2022/11/06 05:23:20;;;;;;;14.65;7.15;;;;;;;1.91;100.00;99726.59;8408790;28;20048;-72
2022/11/06 05:27:21;;;;;;;24.25;11.02;;;;;;;1.91;99.95;99726.59;8447807;28;20047;-73
2022/11/06 05:31:23;;;;;;;17.90;8.07;;;;;;;1.90;99.92;99719.66;8442268;28;20067;-72
2022/11/06 05:35:24;;;;;;;17.73;8.38;;;;;;;1.90;100.00;99714.34;8443534;28;20043;-72
2022/11/06 05:39:25;;;;;;;20.20;9.18;;;;;;;1.91;100.00;99725.78;8430495;28;20062;-75
2022/11/06 05:43:26;;;;;;;20.33;10.95;;;;;;;1.90;100.00;99725.00;8413064;28;20040;-72
2022/11/06 05:47:27;;;;;;;23.42;11.55;;;;;;;1.92;100.00;99730.88;8408290;28;20437;-73
2022/11/06 05:51:28;;;;;;;26.17;11.02;;;;;;;1.96;100.00;99734.69;8438746;28;20122;-72
2022/11/06 05:55:29;;;;;;;29.02;12.40;;;;;;;1.97;100.00;99741.63;8409017;28;20052;-72
2022/11/06 05:59:30;;;;;;;27.65;13.35;;;;;;;2.00;100.00;99741.16;8432077;28;20515;-73
2022/11/06 06:03:31;;;;;;;28.45;13.88;;;;;;;1.95;100.00;99738.41;8428666;28;20055;-73
2022/11/06 06:07:32;;;;;;;33.65;14.93;;;;;;;1.93;100.00;99740.50;8437512;28;20044;-73
2022/11/06 06:11:33;;;;;;;29.83;14.38;;;;;;;1.90;100.00;99746.31;8442120;28;20051;-72
2022/11/06 06:15:34;;;;;;;37.70;14.70;;;;;;;1.71;100.00;99736.84;8429935;28;20044;-73
2022/11/06 06:19:35;;;;;;;32.70;14.90;;;;;;;1.65;100.00;99743.09;8407354;28;20040;-72
2022/11/06 06:23:36;;;;;;;39.65;13.52;;;;;;;1.54;100.00;99743.94;8434577;28;20409;-73
2022/11/06 06:27:37;;;;;;;45.30;18.13;;;;;;;1.50;100.00;99756.09;8436839;28;20052;-72
2022/11/06 06:31:38;;;;;;;55.30;16.08;;;;;;;1.49;100.00;99743.81;8428708;28;20035;-73
2022/11/06 06:35:39;;;;;;;95.85;17.15;;;;;;;1.54;100.00;99743.94;8444896;28;20131;-73
2022/11/06 06:39:40;;;;;;;69.88;18.80;;;;;;;1.69;100.00;99750.38;8428981;28;20131;-73
2022/11/06 06:43:41;;;;;;;94.88;17.25;;;;;;;1.79;100.00;99760.47;8440868;28;20577;-73
2022/11/06 06:47:42;;;;;;;51.50;18.23;;;;;;;1.90;100.00;99762.28;8444693;28;20051;-74
2022/11/06 06:51:43;;;;;;;64.80;17.02;;;;;;;1.92;100.00;99765.50;8419691;28;20044;-72
2022/11/06 06:55:44;;;;;;;46.50;18.55;;;;;;;1.86;100.00;99766.44;8435083;28;20058;-73
2022/11/06 06:59:45;;;;;;;36.83;17.75;;;;;;;1.89;100.00;99771.31;8437983;28;20535;-72
2022/11/06 07:03:46;;;;;;;39.10;17.08;;;;;;;1.93;100.00;99767.13;8426935;28;20052;-73
2022/11/06 07:07:47;;;;;;;38.05;16.27;;;;;;;1.99;100.00;99770.69;8432382;28;20058;-73
2022/11/06 07:11:48;;;;;;;44.58;18.17;;;;;;;2.08;100.00;99770.09;8413546;28;20036;-74
2022/11/06 07:15:52;;;;;;;41.85;17.42;;;;;;;2.17;100.00;99767.06;8444676;28;20127;-73
2022/11/06 07:19:53;;;;;;;39.63;17.88;;;;;;;2.24;100.00;99757.03;8429674;28;20422;-73
2022/11/06 07:23:54;;;;;;;43.35;20.05;;;;;;;2.33;100.00;99760.94;8425711;28;20051;-73
2022/11/06 07:27:59;;;;;;;36.10;16.75;;;;;;;2.46;100.00;99755.31;8429166;28;20055;-72
2022/11/06 07:32:00;;;;;;;41.53;17.58;;;;;;;2.60;100.00;99763.81;8395919;28;20055;-74
2022/11/06 07:36:09;;;;;;;32.40;16.65;;;;;;;2.67;100.00;99762.63;8397313;28;20063;-72
2022/11/06 07:40:10;;;;;;;40.90;15.63;;;;;;;2.75;100.00;99759.53;8439603;28;20059;-73
2022/11/06 07:44:11;;;;;;;35.10;14.98;;;;;;;2.86;100.00;99756.00;8360166;28;20053;-72
2022/11/06 07:48:12;;;;;;;32.72;15.98;;;;;;;3.04;100.00;99752.28;8360724;28;20106;-72
2022/11/06 07:52:13;;;;;;;43.13;16.83;;;;;;;3.21;100.00;99752.28;8361954;28;20045;-72
2022/11/06 07:56:14;;;;;;;50.10;16.80;;;;;;;3.40;100.00;99745.59;8383109;28;20548;-73
2022/11/06 08:00:16;;;;;;;42.58;16.20;;;;;;;3.56;100.00;99760.78;8365533;28;20052;-74
2022/11/06 08:04:16;;;;;;;43.20;18.88;;;;;;;3.77;100.00;99762.66;8347428;28;20589;-73
2022/11/06 08:08:18;;;;;;;48.42;20.58;;;;;;;3.91;100.00;99756.94;8353863;28;20057;-73
2022/11/06 08:12:19;;;;;;;38.88;20.02;;;;;;;4.04;100.00;99751.22;8303502;28;20138;-74
2022/11/06 08:16:20;;;;;;;46.42;20.10;;;;;;;4.16;100.00;99762.59;8346453;28;20053;-72
2022/11/06 08:20:20;;;;;;;44.55;21.17;;;;;;;4.23;100.00;99760.50;8370603;28;20097;-73
2022/11/06 08:24:22;;;;;;;48.10;20.33;;;;;;;4.35;100.00;99763.84;8430794;28;20040;-73
2022/11/06 08:28:24;;;;;;;45.72;20.05;;;;;;;4.44;100.00;99765.00;8428923;28;20524;-73
2022/11/06 08:32:27;;;;;;;41.83;19.58;;;;;;;4.45;100.00;99763.94;8386534;28;20136;-73
2022/11/06 08:36:28;;;;;;;43.67;20.38;;;;;;;4.50;100.00;99764.00;8417158;28;20113;-73
2022/11/06 08:40:29;;;;;;;43.88;20.58;;;;;;;4.65;100.00;99763.34;8423191;28;20505;-72
2022/11/06 08:44:30;;;;;;;49.63;23.15;;;;;;;4.76;100.00;99758.91;8425023;28;20036;-74
2022/11/06 08:48:32;;;;;;;64.30;31.85;;;;;;;4.98;100.00;99767.63;8422784;28;20165;-72
2022/11/06 08:52:33;;;;;;;60.22;33.75;;;;;;;5.17;100.00;99760.81;8425538;28;20135;-73
2022/11/06 08:56:34;;;;;;;36.70;18.77;;;;;;;5.38;100.00;99756.41;8423444;28;20048;-73
2022/11/06 09:00:35;;;;;;;44.15;20.55;;;;;;;5.56;100.00;99768.53;8418756;28;20118;-73
2022/11/06 09:04:36;;;;;;;52.10;22.55;;;;;;;5.66;100.00;99768.63;8417048;28;20036;-72
2022/11/06 09:08:37;;;;;;;46.50;21.85;;;;;;;5.74;100.00;99765.44;8411409;28;20426;-73
2022/11/06 09:12:38;;;;;;;57.97;28.52;;;;;;;5.74;100.00;99765.44;8418848;28;20042;-72
2022/11/06 09:16:39;;;;;;;62.60;32.13;;;;;;;5.71;100.00;99765.97;8422074;28;20104;-73
2022/11/06 09:20:41;;;;;;;55.05;27.30;;;;;;;5.69;100.00;99768.09;8407693;28;20367;-73
2022/11/06 09:24:41;;;;;;;60.55;27.20;;;;;;;5.67;100.00;99767.53;8385612;28;20089;-73
2022/11/06 09:28:43;;;;;;;77.72;35.65;;;;;;;5.74;100.00;99773.47;8421487;28;20101;-73
2022/11/06 09:32:50;;;;;;;57.03;29.20;;;;;;;5.86;100.00;99774.09;8429202;28;20051;-75
2022/11/06 09:36:51;;;;;;;63.85;32.13;;;;;;;6.00;100.00;99769.06;8424416;28;20040;-77
2022/11/06 09:40:56;;;;;;;56.17;29.27;;;;;;;6.14;100.00;99771.00;8420235;28;20139;-75
2022/11/06 09:45:13;;;;;;;76.38;30.85;;;;;;;6.26;100.00;99768.88;8414148;28;20548;-75
2022/11/06 09:49:34;;;;;;;80.00;30.38;;;;;;;6.40;100.00;99768.41;8418388;28;20108;-73
2022/11/06 09:53:45;;;;;;;60.40;26.55;;;;;;;6.43;100.00;99773.22;8422574;28;20543;-73
2022/11/06 09:57:57;;;;;;;60.17;30.15;;;;;;;6.45;100.00;99766.50;8422045;28;20048;-73
2022/11/06 10:02:00;;;;;;;53.42;26.77;;;;;;;6.54;100.00;99774.84;8419607;28;20051;-73
2022/11/06 10:06:01;;;;;;;50.72;24.20;;;;;;;6.68;100.00;99765.22;8423930;28;20051;-72
2022/11/06 10:10:05;;;;;;;52.00;25.23;;;;;;;6.78;100.00;99770.59;8419798;28;20048;-73
2022/11/06 10:14:24;;;;;;;50.40;22.85;;;;;;;6.81;100.00;99764.69;8396617;28;20045;-73
2022/11/06 10:18:59;;;;;;;53.40;25.35;;;;;;;6.92;100.00;99760.94;8417106;28;20039;-72
2022/11/06 10:23:12;;;;;;;51.05;25.17;;;;;;;7.05;100.00;99749.66;8410897;28;20037;-73
2022/11/06 10:27:26;;;;;;;63.97;29.60;;;;;;;7.32;100.00;99748.53;8406025;28;20063;-74
2022/11/06 10:31:38;;;;;;;66.22;30.40;;;;;;;7.44;100.00;99741.00;8404383;28;20040;-73
2022/11/06 10:35:43;;;;;;;56.95;26.15;;;;;;;7.56;100.00;99744.97;8420128;28;20047;-73
2022/11/06 10:39:45;;;;;;;61.47;27.23;;;;;;;7.62;100.00;99729.66;8405100;28;20055;-73
2022/11/06 10:43:52;;;;;;;60.10;24.30;;;;;;;7.81;100.00;99719.09;8411694;28;20044;-73
2022/11/06 10:48:04;;;;;;;49.30;21.92;;;;;;;7.96;100.00;99722.53;8407134;28;20567;-73
2022/11/06 10:52:43;;;;;;;48.17;23.23;;;;;;;8.12;100.00;99703.63;8408985;28;20075;-73
2022/11/06 10:56:46;;;;;;;50.85;21.25;;;;;;;8.33;100.00;99697.06;8409573;28;20481;-73
2022/11/06 11:00:49;;;;;;;40.88;18.33;;;;;;;8.41;100.00;99691.06;8416589;28;20101;-73
2022/11/06 11:04:50;;;;;;;36.80;16.13;;;;;;;8.53;100.00;99688.84;8420688;28;20498;-73
2022/11/06 11:08:51;;;;;;;32.63;14.75;;;;;;;8.60;100.00;99673.19;8416453;28;20064;-73
2022/11/06 11:12:58;;;;;;;40.55;15.48;;;;;;;8.71;100.00;99674.69;8423763;28;20040;-72
2022/11/06 11:17:00;;;;;;;26.52;11.57;;;;;;;8.86;100.00;99666.47;8428956;28;20626;-73
2022/11/06 11:21:17;;;;;;;26.85;10.25;;;;;;;9.03;99.88;99665.25;8407570;28;20048;-72
2022/11/06 11:25:24;;;;;;;22.45;8.48;;;;;;;9.16;98.99;99653.78;8425923;28;20048;-73
2022/11/06 11:29:26;;;;;;;27.65;8.57;;;;;;;9.23;97.43;99643.47;8425843;28;20048;-75
2022/11/06 11:33:27;;;;;;;26.08;8.63;;;;;;;9.31;96.99;99640.13;8386123;28;20048;-73
2022/11/06 11:37:31;;;;;;;23.50;7.55;;;;;;;9.33;95.47;99632.56;8410399;28;20036;-73
2022/11/06 11:41:32;;;;;;;23.20;7.75;;;;;;;9.40;94.43;99622.25;8417756;28;20036;-73
2022/11/06 11:45:33;;;;;;;27.70;8.65;;;;;;;9.43;94.25;99616.28;8415518;28;20040;-74
2022/11/06 11:49:34;;;;;;;25.45;7.72;;;;;;;9.50;94.08;99611.34;8418686;28;20044;-74
2022/11/06 11:53:37;;;;;;;22.05;7.22;;;;;;;9.56;93.43;99599.41;8381905;28;20177;-74
2022/11/06 11:57:43;;;;;;;23.38;7.13;;;;;;;9.64;93.30;99595.25;8424643;28;20045;-74
2022/11/06 12:01:44;;;;;;;28.23;6.82;;;;;;;9.77;92.91;99593.75;8424355;28;20090;-74
2022/11/06 12:05:46;;;;;;;31.20;8.27;;;;;;;9.81;92.56;99589.34;8417441;28;20462;-75
2022/11/06 12:09:46;;;;;;;29.52;7.32;;;;;;;9.85;92.02;99584.97;8429466;28;20059;-74
2022/11/06 12:14:26;;;;;;;24.30;7.15;;;;;;;9.85;92.26;99584.97;8429952;28;20059;-74
2022/11/06 12:18:30;;;;;;;15.70;6.40;;;;;;;9.91;92.12;99573.03;8425021;28;20121;-74
2022/11/06 12:22:37;;;;;;;23.42;6.72;;;;;;;9.92;91.83;99569.22;8412364;28;20040;-74
2022/11/06 12:26:59;;;;;;;21.02;6.05;;;;;;;9.94;91.66;99572.44;8416009;28;20056;-74
2022/11/06 12:31:06;;;;;;;23.27;7.50;;;;;;;9.96;89.66;99564.84;8321611;28;20053;-74
2022/11/06 12:35:25;;;;;;;19.60;6.40;;;;;;;9.92;86.99;99558.44;8309857;28;20085;-75
2022/11/06 12:39:29;;;;;;;35.08;9.18;;;;;;;9.94;86.65;99572.44;8324152;28;20148;-74
2022/11/06 12:43:32;;;;;;;27.90;8.15;;;;;;;9.89;86.40;99554.41;8256946;28;20176;-73
2022/11/06 12:47:46;;;;;;;25.85;9.23;;;;;;;9.89;87.25;99559.00;8313884;28;20056;-74
2022/11/06 12:51:55;;;;;;;25.85;7.63;;;;;;;10.34;87.03;99544.84;8304158;28;20045;-73
2022/11/06 12:56:12;;;;;;;26.25;5.88;;;;;;;11.17;84.50;99541.09;8344557;28;20655;-74
2022/11/06 13:00:26;;;;;;;17.52;5.80;;;;;;;11.91;82.95;99549.78;8303956;28;20091;-75
2022/11/06 13:04:40;;;;;;;29.17;8.30;;;;;;;12.31;81.30;99541.78;8319958;28;20199;-73
2022/11/06 13:09:11;;;;;;;17.95;6.35;;;;;;;12.60;80.27;99550.22;8418977;28;20077;-74
2022/11/06 13:13:12;;;;;;;17.88;6.00;;;;;;;12.56;76.32;99533.00;8423946;28;20044;-74
2022/11/06 13:17:20;;;;;;;21.60;7.90;;;;;;;12.19;76.50;99540.44;8429079;28;20072;-74
2022/11/06 13:21:27;;;;;;;16.95;6.03;;;;;;;11.75;76.14;99535.00;8441225;28;20067;-74
2022/11/06 13:25:31;;;;;;;20.90;7.10;;;;;;;11.17;76.59;99527.56;8440871;28;20056;-73
2022/11/06 13:29:32;;;;;;;20.55;7.78;;;;;;;10.78;76.85;99527.31;8434760;28;20070;-74
2022/11/06 13:33:41;;;;;;;22.20;6.43;;;;;;;10.64;78.28;99526.47;8448815;28;20124;-75
2022/11/06 13:37:46;;;;;;;18.02;5.82;;;;;;;10.59;78.97;99519.28;8407133;28;20055;-73
2022/11/06 13:41:47;;;;;;;17.63;6.05;;;;;;;10.38;80.58;99513.44;8440564;27;20126;-74
2022/11/06 13:46:03;;;;;;;19.60;6.22;;;;;;;10.23;81.26;99516.41;8443498;28;20460;-74
2022/11/06 13:50:16;;;;;;;22.08;6.32;;;;;;;10.02;82.67;99515.13;8429107;28;20048;-73
2022/11/06 13:54:36;;;;;;;15.63;5.00;;;;;;;9.97;82.98;99509.78;8426865;28;20418;-75
2022/11/06 13:59:09;;;;;;;16.30;5.30;;;;;;;9.90;83.23;99506.66;8421995;28;20489;-74
2022/11/06 14:03:31;;;;;;;21.33;6.75;;;;;;;9.78;84.02;99498.25;8355703;28;20060;-73
2022/11/06 14:07:33;;;;;;;49.85;21.40;;;;;;;9.66;84.76;99496.78;8344280;28;20081;-74
2022/11/06 14:11:40;;;;;;;116.72;48.15;;;;;;;9.64;85.01;99498.97;8345604;28;20106;-74
2022/11/06 14:15:41;;;;;;;43.40;21.55;;;;;;;9.52;85.53;99501.31;8327996;28;20526;-74
2022/11/06 14:19:48;;;;;;;23.00;7.32;;;;;;;9.44;85.49;99510.06;8351497;28;20099;-74
2022/11/06 14:23:53;;;;;;;28.65;9.20;;;;;;;9.35;85.47;99503.72;8356606;28;20131;-74
2022/11/06 14:27:54;;;;;;;23.90;7.90;;;;;;;9.23;86.13;99503.34;8364151;28;20550;-74
2022/11/06 14:31:59;;;;;;;20.13;6.85;;;;;;;9.13;85.92;99498.09;8352300;28;20098;-74
2022/11/06 14:36:32;;;;;;;26.42;8.82;;;;;;;9.06;86.50;99494.94;8345334;28;20048;-74
2022/11/06 14:40:32;;;;;;;28.48;10.00;;;;;;;8.98;86.78;99484.81;8385804;28;20127;-74
2022/11/06 14:44:42;;;;;;;27.60;11.13;;;;;;;8.81;87.31;99487.97;8428196;28;20051;-73
2022/11/06 14:48:49;;;;;;;28.25;9.43;;;;;;;8.73;87.46;99489.41;8435268;28;21396;-73
2022/11/06 14:52:55;;;;;;;38.30;14.10;;;;;;;8.60;87.52;99484.72;8457791;28;20097;-73
2022/11/06 14:56:57;;;;;;;32.28;10.75;;;;;;;8.48;88.00;99487.00;8433684;28;20044;-74
2022/11/06 15:01:02;;;;;;;24.00;9.27;;;;;;;8.41;88.14;99486.53;8447814;28;20051;-74
2022/11/06 15:05:14;;;;;;;22.15;7.25;;;;;;;8.25;88.55;99482.38;8437500;28;20383;-75
2022/11/06 15:09:25;;;;;;;33.35;8.73;;;;;;;8.14;88.98;99486.25;8456725;28;20528;-74
2022/11/06 15:13:29;;;;;;;26.02;10.48;;;;;;;8.02;89.33;99479.34;8424511;28;20048;-74
2022/11/06 15:17:33;;;;;;;22.60;8.10;;;;;;;7.89;89.58;99480.00;8446035;28;20138;-73
2022/11/06 15:21:54;;;;;;;22.80;8.13;;;;;;;7.75;90.10;99473.66;8432040;28;20505;-75
2022/11/06 15:26:03;;;;;;;14.55;5.85;;;;;;;7.59;90.58;99474.84;8461323;28;20074;-74
2022/11/06 15:30:09;;;;;;;20.63;7.03;;;;;;;7.46;90.79;99475.47;8433278;28;20052;-74
2022/11/06 15:34:31;;;;;;;25.33;9.45;;;;;;;7.33;91.22;99476.09;8445901;28;20459;-74
2022/11/06 15:38:39;;;;;;;30.42;10.75;;;;;;;7.19;91.49;99460.59;8401081;28;20047;-74
2022/11/06 15:42:40;;;;;;;38.70;15.00;;;;;;;7.09;91.97;99455.28;8431157;28;20080;-75
2022/11/06 15:47:00;;;;;;;39.53;15.77;;;;;;;6.99;92.30;99449.97;8396602;28;20043;-74
2022/11/06 15:51:01;;;;;;;35.72;15.90;;;;;;;6.91;92.74;99453.25;8431507;28;20044;-74
2022/11/06 15:55:03;;;;;;;44.17;17.30;;;;;;;6.87;92.94;99446.81;8459218;28;20378;-74
2022/11/06 15:59:09;;;;;;;45.90;18.45;;;;;;;6.81;93.27;99439.88;8431528;28;20116;-74
2022/11/06 16:03:17;;;;;;;61.30;19.02;;;;;;;6.77;93.62;99436.09;8445216;28;20052;-74
2022/11/06 16:07:18;;;;;;;52.55;19.40;;;;;;;6.80;94.15;99438.25;8400921;28;20050;-74
2022/11/06 16:11:20;;;;;;;52.95;21.15;;;;;;;6.77;94.85;99438.78;8449862;28;20560;-74
2022/11/06 16:15:52;;;;;;;52.13;23.85;;;;;;;6.74;95.70;99452.78;8443326;28;20066;-75
2022/11/06 16:19:58;;;;;;;65.85;24.17;;;;;;;6.69;96.44;99460.84;8442096;28;20113;-73
2022/11/06 16:24:11;;;;;;;58.22;21.85;;;;;;;6.62;97.41;99449.59;8450713;28;20044;-73
2022/11/06 16:28:17;;;;;;;56.83;23.27;;;;;;;6.53;97.58;99440.50;8418914;28;20048;-74
2022/11/06 16:32:21;;;;;;;52.05;20.60;;;;;;;6.47;97.99;99441.59;8446646;28;20060;-74
2022/11/06 16:36:25;;;;;;;53.50;20.38;;;;;;;6.42;97.96;99428.19;8444910;28;20048;-73
2022/11/06 16:40:51;;;;;;;58.88;22.58;;;;;;;6.36;98.22;99420.19;8368256;28;20114;-74
2022/11/06 16:45:15;;;;;;;57.60;20.10;;;;;;;6.32;98.61;99424.47;8389695;28;20168;-75
2022/11/06 16:49:33;;;;;;;45.75;19.85;;;;;;;6.27;98.33;99421.81;8376489;28;20412;-73
2022/11/06 16:53:57;;;;;;;52.45;19.80;;;;;;;6.20;98.34;99415.94;8356665;28;20041;-75
2022/11/06 16:58:00;;;;;;;41.88;19.98;;;;;;;6.17;98.37;99415.69;8368774;28;20495;-73
2022/11/06 17:02:02;;;;;;;57.83;21.58;;;;;;;6.12;98.23;99408.44;8337456;28;20430;-73
2022/11/06 17:06:03;;;;;;;50.00;22.02;;;;;;;6.09;98.22;99414.34;8372102;28;20083;-74
2022/11/06 17:10:24;;;;;;;58.28;24.05;;;;;;;5.99;98.88;99409.00;8369157;28;20558;-73
2022/11/06 17:14:25;;;;;;;60.53;23.55;;;;;;;5.91;99.28;99412.25;8372480;28;20135;-75
2022/11/06 17:18:28;;;;;;;65.72;23.35;;;;;;;5.89;99.35;99411.69;8424169;28;20051;-74
2022/11/06 17:22:29;;;;;;;59.38;24.13;;;;;;;5.82;99.57;99408.47;8444934;28;20452;-74
2022/11/06 17:26:32;;;;;;;66.28;24.88;;;;;;;5.77;99.73;99405.78;8435089;28;20048;-74
2022/11/06 17:30:32;;;;;;;64.63;24.85;;;;;;;5.69;99.85;99398.31;8431573;28;20105;-74
2022/11/06 17:34:34;;;;;;;61.70;24.70;;;;;;;5.64;100.00;99390.28;8439113;28;20048;-73
2022/11/06 17:38:40;;;;;;;71.55;24.50;;;;;;;5.55;100.00;99387.34;8455101;28;20047;-72
2022/11/06 17:42:42;;;;;;;54.35;23.27;;;;;;;5.53;100.00;99384.91;8421578;28;20126;-75
2022/11/06 17:46:45;;;;;;;62.42;26.75;;;;;;;5.45;100.00;99377.41;8440478;28;20044;-73
2022/11/06 17:55:06;;;;;;;73.28;28.00;;;;;;;5.29;100.00;99367.75;8447650;28;20109;-73
2022/11/06 17:59:08;;;;;;;75.47;28.75;;;;;;;5.25;100.00;99366.69;8461883;28;20055;-73
2022/11/06 18:03:18;;;;;;;65.97;27.67;;;;;;;5.18;100.00;99360.81;8401479;28;20101;-73
2022/11/06 18:07:20;;;;;;;67.95;29.15;;;;;;;5.11;100.00;99357.59;8446755;28;20482;-73
2022/11/06 18:11:21;;;;;;;68.97;29.05;;;;;;;5.10;100.00;99358.66;8445834;28;20083;-74
2022/11/06 18:15:22;;;;;;;70.40;29.45;;;;;;;5.08;100.00;99352.75;8441932;28;20112;-74
2022/11/06 18:19:24;;;;;;;67.15;28.40;;;;;;;5.04;100.00;99354.38;8458868;28;20401;-73
2022/11/06 18:23:27;;;;;;;60.10;28.88;;;;;;;4.99;100.00;99346.34;8430896;28;20079;-73
2022/11/06 18:27:31;;;;;;;61.42;28.65;;;;;;;4.97;100.00;99353.84;8452371;28;20498;-73
2022/11/06 18:31:32;;;;;;;70.68;28.67;;;;;;;4.91;100.00;99360.25;8425193;28;20043;-73
2022/11/06 18:35:33;;;;;;;62.92;28.65;;;;;;;4.89;100.00;99351.69;8414826;28;20085;-73
2022/11/06 18:39:34;;;;;;;69.18;31.52;;;;;;;4.78;100.00;99356.19;8414146;28;20044;-73
2022/11/06 18:43:39;;;;;;;74.78;31.27;;;;;;;4.78;100.00;99355.41;8409706;28;20201;-73
2022/11/06 18:47:47;;;;;;;81.63;32.72;;;;;;;4.73;100.00;99363.41;8401974;28;20040;-73
2022/11/06 18:51:47;;;;;;;75.43;34.10;;;;;;;4.67;100.00;99350.03;8436996;28;20096;-73
2022/11/06 18:55:49;;;;;;;74.75;35.00;;;;;;;4.65;100.00;99352.16;8426608;28;20051;-74
2022/11/06 18:59:50;;;;;;;72.65;32.60;;;;;;;4.64;100.00;99361.25;8406364;28;20047;-73
2022/11/06 19:03:54;;;;;;;72.35;30.10;;;;;;;4.59;100.00;99358.56;8425976;28;20044;-74
2022/11/06 19:07:55;;;;;;;63.55;30.00;;;;;;;4.53;100.00;99359.63;8390706;28;20098;-73
2022/11/06 19:11:56;;;;;;;66.88;32.38;;;;;;;4.51;100.00;99361.75;8396771;28;20045;-74
2022/11/06 19:15:58;;;;;;;79.95;35.15;;;;;;;4.46;100.00;99352.91;8404253;28;20131;-74
2022/11/06 19:20:00;;;;;;;81.72;36.75;;;;;;;4.46;100.00;99348.38;8413166;28;20044;-73
2022/11/06 19:24:05;;;;;;;76.50;34.55;;;;;;;4.44;100.00;99350.47;8392251;28;20046;-74